Time;durP1;ratioP1;P1;durP2;ratioP2;P2;SDS_P1;SDS_P2;PMS_P1;PMS_P2;Temp;Humidity;BMP_temperature;BMP_pressure;BME280_temperature;BME280_humidity;BME280_pressure;Samples;Min_cycle;Max_cycle;Signal;HPM_P1;HPM_P2
2022/10/30 00:02:19;;;;;;;16.73;7.95;;;;;;;15.31;91.45;100355.72;4970656;28;20050;-87
2022/10/30 00:04:46;;;;;;;26.60;9.98;;;;;;;15.30;91.36;100354.06;4949725;28;20987;-87
2022/10/30 00:07:13;;;;;;;19.42;8.07;;;;;;;15.29;91.18;100357.75;4967311;28;20050;-86
2022/10/30 00:09:40;;;;;;;16.10;7.82;;;;;;;15.25;91.13;100350.19;4986211;28;20053;-87
2022/10/30 00:12:06;;;;;;;17.38;7.95;;;;;;;15.22;90.87;100345.13;4954636;28;20038;-86
2022/10/30 00:14:33;;;;;;;22.80;8.20;;;;;;;15.20;90.71;100342.59;4970521;28;20046;-86
2022/10/30 00:17:00;;;;;;;25.42;8.77;;;;;;;15.19;91.17;100339.09;4985888;28;20050;-86
2022/10/30 00:19:26;;;;;;;16.58;8.57;;;;;;;15.20;91.32;100335.41;4955644;28;20125;-86
2022/10/30 00:21:53;;;;;;;19.15;8.05;;;;;;;15.15;91.40;100335.03;4970215;28;20101;-86
2022/10/30 00:24:20;;;;;;;19.15;7.93;;;;;;;15.13;91.67;100331.66;4980269;28;20130;-86
2022/10/30 00:26:47;;;;;;;17.40;8.52;;;;;;;15.13;91.81;100330.81;5002074;28;20552;-86
2022/10/30 00:29:13;;;;;;;19.35;8.23;;;;;;;15.16;91.49;100335.88;4974691;28;20053;-87
2022/10/30 00:31:40;;;;;;;27.10;9.05;;;;;;;15.17;91.28;100329.53;4951788;28;20461;-86
2022/10/30 00:34:07;;;;;;;22.05;8.05;;;;;;;15.16;91.36;100330.50;4960135;28;20110;-87
2022/10/30 00:36:35;;;;;;;21.42;8.93;;;;;;;15.13;91.30;100326.31;4972856;28;20117;-86
2022/10/30 00:39:04;;;;;;;17.40;7.60;;;;;;;15.14;91.22;100332.53;4967170;28;20093;-87
2022/10/30 00:41:31;;;;;;;27.42;8.55;;;;;;;15.11;91.62;100333.69;4955464;28;20072;-87
2022/10/30 00:43:57;;;;;;;18.13;8.35;;;;;;;15.08;91.57;100333.94;4975251;28;20379;-86
2022/10/30 00:46:36;;;;;;;19.73;8.23;;;;;;;14.90;90.87;100333.13;4944124;28;20510;-86
2022/10/30 00:49:09;;;;;;;19.70;8.05;;;;;;;14.99;90.46;100332.22;4965375;28;20490;-86
2022/10/30 00:51:37;;;;;;;18.63;7.80;;;;;;;15.10;90.76;100339.16;4965920;28;20116;-86
2022/10/30 00:54:05;;;;;;;18.73;7.20;;;;;;;15.09;90.84;100337.50;4969044;28;20038;-87
2022/10/30 00:56:32;;;;;;;14.40;6.47;;;;;;;15.02;90.49;100328.41;4971478;28;20050;-86
2022/10/30 00:59:05;;;;;;;16.05;6.97;;;;;;;14.96;90.61;100327.19;4957848;28;20046;-87
2022/10/30 01:01:35;;;;;;;19.25;8.38;;;;;;;15.03;90.62;100327.38;4950977;28;20054;-86
2022/10/30 01:04:04;;;;;;;16.48;7.00;;;;;;;15.08;90.85;100328.59;4939547;28;20375;-87
2022/10/30 01:06:33;;;;;;;14.20;7.13;;;;;;;15.08;91.42;100328.59;4954029;28;22470;-86
2022/10/30 01:09:00;;;;;;;15.85;7.55;;;;;;;15.10;91.61;100325.78;4955273;28;20065;-87
2022/10/30 01:11:27;;;;;;;19.95;7.43;;;;;;;15.08;91.67;100333.94;4971746;28;20046;-87
2022/10/30 01:13:57;;;;;;;17.88;7.35;;;;;;;15.04;91.39;100339.78;4972632;28;20047;-87
2022/10/30 01:16:43;;;;;;;21.60;7.50;;;;;;;15.11;90.83;100340.84;4974981;28;20043;-87
2022/10/30 01:19:15;;;;;;;18.80;8.77;;;;;;;15.08;90.55;100338.47;4951297;28;20058;-87
2022/10/30 01:22:08;;;;;;;14.55;7.30;;;;;;;14.91;90.56;100338.31;4972472;28;20043;-87
2022/10/30 01:25:02;;;;;;;24.97;7.53;;;;;;;14.79;90.72;100338.69;4937654;28;20061;-87
2022/10/30 01:27:36;;;;;;;19.92;8.77;;;;;;;14.88;90.49;100335.09;4935928;28;20046;-87
2022/10/30 01:30:43;;;;;;;13.68;6.97;;;;;;;14.74;89.86;100328.44;4950083;28;20046;-87
2022/10/30 01:33:39;;;;;;;15.93;8.00;;;;;;;14.73;89.95;100330.28;4931668;28;20492;-87
2022/10/30 01:36:17;;;;;;;21.55;6.97;;;;;;;14.80;90.01;100333.16;4904983;28;20046;-87
2022/10/30 01:38:51;;;;;;;17.02;7.28;;;;;;;14.79;90.46;100326.16;4938937;28;20046;-87
2022/10/30 01:41:18;;;;;;;16.05;7.88;;;;;;;14.89;90.27;100320.75;4932571;28;20051;-87
2022/10/30 01:43:50;;;;;;;13.55;7.35;;;;;;;14.85;89.91;100319.34;4933770;28;20058;-88
2022/10/30 01:46:58;;;;;;;23.83;7.63;;;;;;;14.65;89.19;100314.13;4950814;28;20495;-87
2022/10/30 01:49:42;;;;;;;22.30;7.75;;;;;;;14.62;89.37;100308.25;4940519;28;20517;-87
2022/10/30 01:52:33;;;;;;;14.65;7.03;;;;;;;14.65;88.96;100299.94;4976373;28;20054;-87
2022/10/30 01:55:08;;;;;;;14.38;6.65;;;;;;;14.59;88.72;100301.38;4970440;28;20045;-87
2022/10/30 01:57:36;;;;;;;19.02;7.13;;;;;;;14.68;90.04;100295.13;4957805;28;20038;-87
2022/10/30 02:00:07;;;;;;;18.38;7.18;;;;;;;14.69;89.53;100304.81;4970278;28;20046;-87
2022/10/30 02:02:45;;;;;;;17.15;7.90;;;;;;;14.70;89.66;100300.31;4989426;28;20625;-87
2022/10/30 02:05:20;;;;;;;14.07;7.43;;;;;;;14.68;89.89;100302.28;4977141;28;20058;-87
2022/10/30 02:07:47;;;;;;;15.93;7.57;;;;;;;14.73;90.26;100302.69;4974206;28;20039;-87
2022/10/30 02:10:14;;;;;;;15.85;6.97;;;;;;;14.70;89.76;100305.66;4988895;28;20445;-87
2022/10/30 02:12:41;;;;;;;15.32;7.53;;;;;;;14.70;89.64;100301.16;4957925;28;20118;-87
2022/10/30 02:15:10;;;;;;;16.08;7.40;;;;;;;14.67;89.46;100296.13;4956421;28;20066;-87
2022/10/30 02:17:38;;;;;;;16.83;7.75;;;;;;;14.71;89.76;100296.66;4988686;28;20057;-88
2022/10/30 02:20:06;;;;;;;19.40;7.22;;;;;;;14.71;89.87;100296.66;4993391;28;20076;-87
2022/10/30 02:22:33;;;;;;;15.30;8.20;;;;;;;14.75;89.87;100306.88;4964194;28;20500;-87
2022/10/30 02:25:00;;;;;;;13.80;7.80;;;;;;;14.72;89.95;100296.50;4990557;28;20053;-88
2022/10/30 02:27:27;;;;;;;24.75;7.75;;;;;;;14.75;89.88;100298.88;4985656;28;20441;-87
2022/10/30 02:29:54;;;;;;;15.18;7.30;;;;;;;14.74;89.49;100299.03;4936963;28;20046;-87
2022/10/30 02:32:20;;;;;;;18.65;7.63;;;;;;;14.74;90.24;100304.38;4988660;28;20049;-88
2022/10/30 02:34:47;;;;;;;16.63;7.82;;;;;;;14.76;90.05;100291.72;4991184;28;20446;-87
2022/10/30 02:37:14;;;;;;;20.45;7.65;;;;;;;14.76;90.09;100294.38;4982157;28;20042;-87
2022/10/30 02:39:41;;;;;;;21.05;7.80;;;;;;;14.70;90.09;100298.47;4971196;28;20046;-87
2022/10/30 02:42:08;;;;;;;21.02;7.55;;;;;;;14.69;90.04;100304.00;4969838;28;20067;-87
2022/10/30 02:44:34;;;;;;;21.33;8.00;;;;;;;14.68;89.88;100295.13;4951016;28;20058;-87
2022/10/30 02:47:01;;;;;;;20.65;8.45;;;;;;;14.73;89.82;100297.34;4954264;28;20050;-86
2022/10/30 02:49:28;;;;;;;16.73;7.65;;;;;;;14.72;89.61;100298.34;4972129;28;20443;-87
2022/10/30 02:51:55;;;;;;;15.38;6.82;;;;;;;14.71;89.84;100300.19;4988115;28;20050;-87
2022/10/30 02:54:22;;;;;;;12.98;6.47;;;;;;;14.70;89.39;100300.31;4987371;28;20502;-87
2022/10/30 02:56:49;;;;;;;16.10;7.18;;;;;;;14.64;89.04;100300.94;5002673;28;20431;-88
2022/10/30 02:59:16;;;;;;;19.17;7.60;;;;;;;14.58;89.23;100309.53;4974388;28;23632;-87
2022/10/30 03:01:43;;;;;;;18.80;7.07;;;;;;;14.53;88.65;100296.66;4953114;28;20129;-88
2022/10/30 03:04:09;;;;;;;12.50;6.38;;;;;;;14.51;88.45;100303.94;4965348;28;20101;-86
2022/10/30 03:06:36;;;;;;;12.25;6.50;;;;;;;14.52;88.42;100298.41;4974916;28;20065;-87
2022/10/30 03:09:03;;;;;;;12.13;5.78;;;;;;;14.51;88.88;100302.09;4956971;28;20041;-87
2022/10/30 03:11:30;;;;;;;12.43;6.50;;;;;;;14.54;89.13;100301.81;4987208;28;20054;-87
2022/10/30 03:13:56;;;;;;;19.33;7.35;;;;;;;14.53;89.35;100299.31;4957253;28;20065;-87
2022/10/30 03:16:25;;;;;;;14.93;6.80;;;;;;;14.53;88.59;100300.16;4954805;28;20046;-87
2022/10/30 03:18:54;;;;;;;17.55;6.10;;;;;;;14.43;88.69;100293.16;4970556;28;20121;-87
2022/10/30 03:21:23;;;;;;;14.95;6.88;;;;;;;14.38;88.59;100298.94;4957668;28;20055;-87
2022/10/30 03:23:50;;;;;;;15.98;6.22;;;;;;;14.39;87.93;100299.78;4978149;28;20402;-87
2022/10/30 03:26:17;;;;;;;12.10;6.35;;;;;;;14.38;88.26;100301.63;4955910;28;20186;-87
2022/10/30 03:28:49;;;;;;;15.90;7.53;;;;;;;14.28;88.83;100298.16;4963396;28;20450;-87
2022/10/30 03:31:17;;;;;;;12.82;6.55;;;;;;;14.23;88.13;100298.59;4934171;28;20050;-87
2022/10/30 03:33:45;;;;;;;11.63;6.20;;;;;;;14.34;88.39;100297.53;4933875;28;20047;-87
2022/10/30 03:36:19;;;;;;;14.90;6.78;;;;;;;14.29;88.73;100305.16;4950056;28;20042;-87
2022/10/30 03:38:46;;;;;;;17.00;6.25;;;;;;;14.31;88.32;100304.03;4919722;28;20739;-87
2022/10/30 03:41:16;;;;;;;18.00;6.82;;;;;;;14.26;88.29;100313.47;4953175;28;20050;-87
2022/10/30 03:43:43;;;;;;;11.30;5.47;;;;;;;14.21;87.69;100308.56;4934776;28;20046;-87
2022/10/30 03:46:10;;;;;;;14.80;7.22;;;;;;;14.20;87.69;100312.25;4920014;28;20101;-86
2022/10/30 03:48:37;;;;;;;16.98;7.25;;;;;;;14.20;87.86;100308.75;4962473;28;20042;-87
2022/10/30 03:51:04;;;;;;;17.55;7.03;;;;;;;14.15;87.30;100306.50;4967572;28;20054;-87
2022/10/30 03:53:32;;;;;;;12.45;5.85;;;;;;;14.09;86.96;100307.06;4986629;28;20054;-87
2022/10/30 03:56:02;;;;;;;14.85;6.80;;;;;;;14.05;86.55;100306.53;4973005;28;20129;-87
2022/10/30 03:58:38;;;;;;;14.90;6.75;;;;;;;13.99;86.68;100307.16;4970790;28;20550;-87
2022/10/30 04:01:09;;;;;;;14.38;6.38;;;;;;;14.02;86.34;100298.84;4956491;28;20072;-86
2022/10/30 04:03:39;;;;;;;17.42;6.50;;;;;;;14.00;87.24;100308.81;4952349;28;20066;-87
2022/10/30 04:06:07;;;;;;;12.25;6.72;;;;;;;13.99;87.06;100308.94;4951014;28;20047;-87
2022/10/30 04:08:34;;;;;;;16.25;6.78;;;;;;;14.01;87.30;100313.16;4968327;28;20042;-87
2022/10/30 04:11:02;;;;;;;10.80;6.53;;;;;;;14.10;87.48;100312.28;4957329;28;20047;-87
2022/10/30 04:13:29;;;;;;;14.77;6.97;;;;;;;14.09;87.57;100309.75;4973952;28;20046;-87
2022/10/30 04:15:56;;;;;;;16.13;6.88;;;;;;;14.10;86.53;100308.78;4972394;28;20259;-86
2022/10/30 04:18:24;;;;;;;27.02;7.40;;;;;;;14.08;87.08;100311.59;4933534;28;20046;-87
2022/10/30 04:20:52;;;;;;;16.50;6.78;;;;;;;14.06;87.66;100318.91;4953176;28;20150;-86
2022/10/30 04:23:20;;;;;;;17.08;6.80;;;;;;;14.05;87.73;100317.22;4953187;28;20096;-87
2022/10/30 04:25:47;;;;;;;11.60;7.20;;;;;;;14.01;88.32;100317.66;4949624;28;20148;-87
2022/10/30 04:28:14;;;;;;;17.55;7.40;;;;;;;14.00;88.76;100314.16;4984218;28;20054;-86
2022/10/30 04:30:41;;;;;;;15.32;7.05;;;;;;;13.99;89.08;100316.97;4969355;28;20050;-87
2022/10/30 04:33:12;;;;;;;12.48;6.32;;;;;;;13.88;88.85;100315.31;4968969;28;20046;-87
2022/10/30 04:35:40;;;;;;;13.45;6.72;;;;;;;13.92;89.07;100311.38;4966859;28;20070;-87
2022/10/30 04:38:12;;;;;;;15.57;7.57;;;;;;;13.89;89.05;100306.31;4954302;28;20069;-87
2022/10/30 04:40:42;;;;;;;13.70;7.80;;;;;;;13.90;88.77;100306.16;4970272;28;20459;-87
2022/10/30 04:43:11;;;;;;;10.52;6.43;;;;;;;13.87;88.16;100300.28;4955695;28;20084;-87
2022/10/30 04:45:38;;;;;;;15.05;6.90;;;;;;;13.84;88.11;100295.22;4956972;28;20046;-87
2022/10/30 04:48:09;;;;;;;11.75;5.88;;;;;;;13.81;87.51;100299.03;4971209;28;20378;-87
2022/10/30 04:50:36;;;;;;;12.57;5.68;;;;;;;13.78;87.99;100296.66;4984406;28;20034;-87
2022/10/30 04:53:11;;;;;;;19.73;6.45;;;;;;;13.74;86.82;100300.63;4974130;28;20057;-87
2022/10/30 04:55:38;;;;;;;12.20;6.28;;;;;;;13.80;87.67;100294.69;4990582;28;20056;-87
2022/10/30 04:58:06;;;;;;;12.90;5.90;;;;;;;13.83;87.34;100298.88;4970761;28;20140;-87
2022/10/30 05:00:36;;;;;;;17.70;6.50;;;;;;;13.79;87.51;100295.69;4975382;28;20056;-87
2022/10/30 05:03:22;;;;;;;19.25;6.18;;;;;;;13.67;87.37;100292.34;4989479;28;20710;-87
2022/10/30 05:06:01;;;;;;;17.00;6.53;;;;;;;13.64;88.15;100292.63;4955922;28;20392;-87
2022/10/30 05:08:28;;;;;;;14.93;6.32;;;;;;;13.75;88.26;100298.78;4932165;28;20494;-87
2022/10/30 05:10:57;;;;;;;14.13;6.50;;;;;;;13.74;88.09;100292.59;4934338;28;20043;-87
2022/10/30 05:13:24;;;;;;;10.15;6.70;;;;;;;13.76;88.26;100287.94;4919452;28;20058;-87
2022/10/30 05:15:53;;;;;;;12.63;6.78;;;;;;;13.71;87.90;100292.88;4932918;28;22413;-87
2022/10/30 05:18:21;;;;;;;17.40;6.78;;;;;;;13.71;88.42;100295.53;4963576;28;20711;-87
2022/10/30 05:20:47;;;;;;;20.20;7.70;;;;;;;13.67;89.27;100295.00;4917485;28;20050;-87
2022/10/30 05:23:14;;;;;;;21.25;7.53;;;;;;;13.68;89.70;100287.81;4945459;28;20045;-87
2022/10/30 05:25:41;;;;;;;19.70;7.05;;;;;;;13.77;88.71;100299.47;4966881;28;20042;-87
2022/10/30 05:28:10;;;;;;;15.68;7.57;;;;;;;13.70;89.16;100296.53;4986252;28;20125;-88
2022/10/30 05:30:44;;;;;;;21.67;7.57;;;;;;;13.63;90.23;100295.44;4956744;28;20054;-87
2022/10/30 05:33:25;;;;;;;14.23;6.55;;;;;;;13.65;89.73;100293.47;4950264;28;20053;-87
2022/10/30 05:35:51;;;;;;;16.42;7.22;;;;;;;13.64;90.21;100291.78;4967633;28;20408;-87
2022/10/30 05:38:18;;;;;;;17.55;6.90;;;;;;;13.62;90.50;100291.09;4955866;28;20438;-87
2022/10/30 05:40:45;;;;;;;11.40;7.07;;;;;;;13.61;90.47;100284.91;4946619;28;20945;-88
2022/10/30 05:43:13;;;;;;;16.42;6.57;;;;;;;13.60;90.48;100293.06;4987665;28;20402;-87
2022/10/30 05:45:40;;;;;;;17.15;7.18;;;;;;;13.67;89.88;100294.16;4981192;28;20101;-87
2022/10/30 05:48:07;;;;;;;15.10;6.93;;;;;;;13.66;90.30;100296.00;4977653;28;20498;-87
2022/10/30 05:50:41;;;;;;;11.70;6.35;;;;;;;13.63;90.42;100298.09;4956256;28;20054;-87
2022/10/30 05:53:13;;;;;;;11.43;6.53;;;;;;;13.58;90.30;100292.34;4975114;28;20134;-87
2022/10/30 05:55:40;;;;;;;17.17;9.20;;;;;;;13.57;90.32;100294.19;4957763;28;20390;-87
2022/10/30 05:58:15;;;;;;;23.42;12.57;;;;;;;13.55;89.84;100298.81;4992142;28;20054;-86
2022/10/30 06:00:44;;;;;;;22.38;11.63;;;;;;;13.53;89.65;100292.78;4979230;28;20043;-87
2022/10/30 06:03:15;;;;;;;17.52;9.48;;;;;;;13.55;89.56;100300.66;4975967;28;20042;-86
2022/10/30 06:05:44;;;;;;;17.10;9.48;;;;;;;13.52;89.55;100300.94;4976315;28;20054;-87
2022/10/30 06:08:15;;;;;;;25.08;8.90;;;;;;;13.54;89.50;100299.81;4951735;28;20075;-87
2022/10/30 06:10:42;;;;;;;13.65;6.60;;;;;;;13.50;90.10;100300.25;4970006;28;20049;-87
2022/10/30 06:13:15;;;;;;;26.90;6.80;;;;;;;13.54;89.08;100306.97;4971255;28;20034;-87
2022/10/30 06:15:53;;;;;;;25.83;7.25;;;;;;;13.50;88.84;100308.25;4955444;28;20557;-87
2022/10/30 06:18:20;;;;;;;31.35;6.55;;;;;;;13.57;88.68;100307.53;4950682;28;20402;-87
2022/10/30 06:20:55;;;;;;;14.98;6.45;;;;;;;13.45;89.35;100314.84;4952826;28;20039;-87
2022/10/30 06:23:25;;;;;;;7.70;5.93;;;;;;;13.50;88.95;100311.75;4971290;28;20502;-87
2022/10/30 06:25:57;;;;;;;9.00;5.63;;;;;;;13.48;88.99;100321.72;4961961;28;20133;-87
2022/10/30 06:28:30;;;;;;;10.25;6.13;;;;;;;13.53;88.49;100327.47;4970158;28;20042;-87
2022/10/30 06:30:57;;;;;;;17.38;6.15;;;;;;;13.53;88.69;100323.97;4977405;28;20046;-87
2022/10/30 06:33:24;;;;;;;17.40;6.80;;;;;;;13.46;88.96;100321.03;4988739;28;20451;-87
2022/10/30 06:35:51;;;;;;;17.75;6.43;;;;;;;13.51;88.38;100321.44;4972185;28;20403;-87
2022/10/30 06:38:18;;;;;;;10.25;5.95;;;;;;;13.41;87.93;100318.78;4972147;28;20046;-87
2022/10/30 06:40:48;;;;;;;12.43;6.40;;;;;;;13.40;88.54;100327.75;4958484;28;20169;-87
2022/10/30 06:43:44;;;;;;;11.85;5.50;;;;;;;13.41;88.68;100324.13;4913869;28;20058;-87
2022/10/30 06:46:18;;;;;;;9.27;6.13;;;;;;;13.41;88.40;100326.78;4953630;28;20141;-87
2022/10/30 06:48:45;;;;;;;20.23;6.47;;;;;;;13.43;88.38;100327.50;4969651;28;20078;-87
2022/10/30 06:51:13;;;;;;;17.70;6.55;;;;;;;13.37;88.33;100327.22;4941949;28;20061;-87
2022/10/30 06:53:40;;;;;;;15.38;6.30;;;;;;;13.42;88.49;100328.47;4931287;28;20507;-87
2022/10/30 06:56:27;;;;;;;13.52;6.93;;;;;;;13.40;88.30;100333.09;4931934;28;20059;-87
2022/10/30 06:59:03;;;;;;;11.43;6.63;;;;;;;13.40;88.34;100329.59;4953163;28;20045;-87
2022/10/30 07:01:36;;;;;;;15.27;6.88;;;;;;;13.42;88.06;100332.97;4953990;28;20099;-87
2022/10/30 07:04:18;;;;;;;12.20;7.28;;;;;;;13.38;88.65;100339.56;4950129;28;20101;-87
2022/10/30 07:06:45;;;;;;;25.30;7.30;;;;;;;13.38;88.80;100342.22;4984571;28;20042;-87
2022/10/30 07:09:12;;;;;;;17.55;7.35;;;;;;;13.41;87.99;100342.78;4949005;28;20457;-87
2022/10/30 07:11:44;;;;;;;21.77;7.07;;;;;;;13.42;88.18;100340.97;4965168;28;20484;-88
2022/10/30 07:14:31;;;;;;;11.82;6.57;;;;;;;13.40;88.28;100335.75;4955401;28;20050;-87
2022/10/30 07:17:09;;;;;;;12.13;6.72;;;;;;;13.40;88.41;100346.44;4987192;28;20489;-83
2022/10/30 07:19:37;;;;;;;14.65;7.43;;;;;;;13.43;88.51;100347.97;4966604;28;20509;-82
2022/10/30 07:22:05;;;;;;;23.73;7.18;;;;;;;13.44;88.58;100342.50;4973007;28;20489;-83
2022/10/30 07:24:33;;;;;;;12.23;6.25;;;;;;;13.39;88.97;100342.09;4972875;28;20122;-83
2022/10/30 07:27:08;;;;;;;24.42;6.55;;;;;;;13.39;88.86;100344.75;4972015;28;20116;-82
2022/10/30 07:29:40;;;;;;;23.35;6.20;;;;;;;13.43;88.74;100345.31;4935329;28;20039;-83
2022/10/30 07:32:17;;;;;;;16.00;6.55;;;;;;;13.42;89.32;100341.81;4983436;28;20042;-83
2022/10/30 07:35:04;;;;;;;15.15;7.15;;;;;;;13.46;88.94;100332.53;4951495;28;20051;-83
2022/10/30 07:37:49;;;;;;;19.40;6.35;;;;;;;13.48;88.95;100348.38;4982846;28;20046;-83
2022/10/30 07:40:16;;;;;;;16.80;6.43;;;;;;;13.46;89.05;100339.72;4987840;28;20050;-84
2022/10/30 07:42:49;;;;;;;14.45;6.38;;;;;;;13.50;89.39;100346.44;4971555;28;20105;-83
2022/10/30 07:45:48;;;;;;;34.22;7.05;;;;;;;13.51;88.95;100355.25;4965666;28;20053;-82
2022/10/30 07:48:35;;;;;;;21.17;6.88;;;;;;;13.48;89.56;100355.56;4961993;28;20046;-81
2022/10/30 07:51:06;;;;;;;18.52;5.97;;;;;;;13.52;89.71;100360.47;4991097;28;20045;-81
2022/10/30 07:53:34;;;;;;;11.80;6.25;;;;;;;13.54;89.99;100358.50;4970192;28;20042;-81
2022/10/30 07:56:02;;;;;;;34.55;6.65;;;;;;;13.54;90.43;100347.00;4983792;28;20076;-81
2022/10/30 07:59:01;;;;;;;21.88;6.30;;;;;;;13.53;90.39;100355.97;4934592;28;20054;-82
2022/10/30 08:01:48;;;;;;;17.23;6.32;;;;;;;13.57;89.69;100349.38;4981352;28;20080;-82
2022/10/30 08:04:31;;;;;;;14.57;6.07;;;;;;;13.55;90.30;100356.69;4989797;28;20375;-82
2022/10/30 08:07:07;;;;;;;11.32;5.68;;;;;;;13.57;90.41;100354.72;4950061;28;20038;-83
2022/10/30 08:09:34;;;;;;;21.27;6.65;;;;;;;13.61;90.07;100356.09;4967814;28;20049;-82
2022/10/30 08:12:01;;;;;;;9.40;5.68;;;;;;;13.64;90.05;100355.84;4967788;28;20047;-84
2022/10/30 08:14:28;;;;;;;7.53;4.97;;;;;;;13.61;90.55;100354.28;4970413;28;20049;-84
2022/10/30 08:16:54;;;;;;;10.35;6.07;;;;;;;13.70;90.02;100355.25;4984352;28;20092;-84
2022/10/30 08:19:21;;;;;;;19.60;6.50;;;;;;;13.68;90.41;100351.88;4965952;28;20038;-84
2022/10/30 08:21:48;;;;;;;7.03;5.65;;;;;;;13.68;90.67;100359.88;4969741;28;20042;-84
2022/10/30 08:24:17;;;;;;;7.32;5.35;;;;;;;13.69;90.78;100358.91;4972813;28;20046;-84
2022/10/30 08:26:46;;;;;;;7.82;5.97;;;;;;;13.71;90.40;100356.09;4971126;28;20042;-84
2022/10/30 08:29:13;;;;;;;8.43;6.03;;;;;;;13.72;90.74;100357.78;4969573;28;20069;-84
2022/10/30 08:31:43;;;;;;;20.33;6.82;;;;;;;13.74;90.82;100359.34;4981845;28;20136;-84
2022/10/30 08:34:22;;;;;;;12.60;6.15;;;;;;;13.71;91.67;100354.25;4998898;28;20069;-82
2022/10/30 08:36:53;;;;;;;7.32;6.00;;;;;;;13.80;91.30;100352.56;4986354;28;20042;-83
2022/10/30 08:39:20;;;;;;;9.18;5.70;;;;;;;13.85;91.53;100353.81;4984359;28;20158;-84
2022/10/30 08:42:06;;;;;;;7.78;6.07;;;;;;;13.91;91.67;100352.38;4949473;28;20054;-84
2022/10/30 08:44:39;;;;;;;7.93;5.50;;;;;;;13.93;91.49;100349.59;4987209;28;20053;-83
2022/10/30 08:47:14;;;;;;;8.85;6.03;;;;;;;13.91;91.79;100341.72;4983449;28;20104;-82
2022/10/30 08:49:40;;;;;;;7.70;5.68;;;;;;;13.98;91.69;100342.81;4965854;28;20568;-82
2022/10/30 08:52:08;;;;;;;9.27;6.10;;;;;;;14.04;91.79;100342.25;4983708;28;20046;-82
2022/10/30 08:54:35;;;;;;;9.50;6.68;;;;;;;14.04;92.22;100341.38;4986176;28;20078;-83
2022/10/30 08:57:01;;;;;;;10.20;6.13;;;;;;;14.12;91.59;100346.88;4957676;28;20074;-83
2022/10/30 08:59:28;;;;;;;8.07;5.82;;;;;;;14.14;91.36;100347.53;4985392;28;20042;-83
2022/10/30 09:01:57;;;;;;;7.28;6.00;;;;;;;14.16;91.34;100337.56;4969165;28;20136;-84
2022/10/30 09:04:44;;;;;;;9.30;5.47;;;;;;;14.21;91.57;100343.31;4989774;28;20046;-83
2022/10/30 09:07:11;;;;;;;6.88;5.18;;;;;;;14.24;91.46;100339.50;4985295;28;20049;-84
2022/10/30 09:09:38;;;;;;;9.82;6.00;;;;;;;14.32;91.25;100339.59;4979654;28;20050;-83
2022/10/30 09:12:06;;;;;;;12.40;5.82;;;;;;;14.34;91.57;100348.31;4983038;28;20081;-83
2022/10/30 09:14:40;;;;;;;8.13;6.13;;;;;;;14.37;91.79;100342.66;4983589;28;20072;-82
2022/10/30 09:17:08;;;;;;;13.88;6.75;;;;;;;14.43;91.31;100344.75;4956817;28;20046;-82
2022/10/30 09:19:36;;;;;;;9.98;6.75;;;;;;;14.49;91.56;100344.16;4972145;28;20047;-82
2022/10/30 09:22:04;;;;;;;17.05;6.20;;;;;;;14.51;91.62;100344.03;4970068;28;20050;-82
2022/10/30 09:24:32;;;;;;;12.77;6.55;;;;;;;14.56;91.72;100341.78;4988148;28;20125;-83
2022/10/30 09:27:18;;;;;;;9.07;6.03;;;;;;;14.63;91.57;100347.34;4973844;28;20047;-83
2022/10/30 09:29:48;;;;;;;10.65;5.70;;;;;;;14.67;91.63;100336.22;4958979;28;20053;-82
2022/10/30 09:32:20;;;;;;;10.38;6.05;;;;;;;14.73;91.96;100343.66;4973826;28;20153;-83
2022/10/30 09:35:08;;;;;;;8.18;6.15;;;;;;;14.79;91.74;100341.38;4995360;28;20218;-82
2022/10/30 09:37:37;;;;;;;10.30;7.72;;;;;;;14.84;91.83;100347.09;4982192;28;20375;-83
2022/10/30 09:40:20;;;;;;;11.13;6.95;;;;;;;14.84;92.07;100344.44;4971545;28;20042;-85
2022/10/30 09:42:48;;;;;;;10.82;7.43;;;;;;;14.91;91.79;100341.00;4990704;28;20039;-83
2022/10/30 09:45:25;;;;;;;11.13;7.30;;;;;;;14.96;91.86;100349.41;4988273;28;20125;-84
2022/10/30 09:48:20;;;;;;;10.77;7.85;;;;;;;14.93;92.13;100343.50;4938947;28;20058;-83
2022/10/30 09:51:18;;;;;;;11.60;7.18;;;;;;;14.94;92.22;100339.84;4970196;28;20081;-82
2022/10/30 09:54:04;;;;;;;12.02;7.45;;;;;;;15.01;92.10;100334.72;4977502;28;20056;-83
2022/10/30 09:56:43;;;;;;;13.25;7.25;;;;;;;15.08;91.89;100333.13;4937135;28;20177;-83
2022/10/30 09:59:18;;;;;;;14.57;7.70;;;;;;;15.14;91.86;100330.69;4953766;28;20410;-83
2022/10/30 10:01:53;;;;;;;9.85;6.68;;;;;;;15.16;92.32;100334.06;4968218;28;22911;-84
2022/10/30 10:04:29;;;;;;;15.98;6.85;;;;;;;15.20;92.16;100335.41;4991614;28;20051;-82
2022/10/30 10:07:31;;;;;;;12.95;6.72;;;;;;;15.20;93.00;100339.94;4955954;28;20051;-82
2022/10/30 10:10:24;;;;;;;13.50;7.45;;;;;;;15.30;92.53;100335.34;4874063;28;20054;-82
2022/10/30 10:12:54;;;;;;;11.50;6.53;;;;;;;15.33;92.36;100318.97;4954638;28;20438;-82
2022/10/30 10:15:26;;;;;;;;;;;;;;;15.17;94.27;100325.03;4949640;28;20102;-83
2022/10/30 10:17:53;;;;;;;14.73;7.30;;;;;;;15.37;92.71;100322.19;4969972;28;19921;-84
2022/10/30 10:20:42;;;;;;;11.13;7.15;;;;;;;15.37;93.23;100324.88;4936727;28;20445;-83
2022/10/30 10:23:16;;;;;;;16.13;7.25;;;;;;;15.46;93.00;100323.09;4920350;28;20158;-84
2022/10/30 10:25:49;;;;;;;14.07;7.68;;;;;;;15.52;92.88;100330.47;4966231;28;20563;-84
2022/10/30 10:28:47;;;;;;;14.52;7.90;;;;;;;15.49;93.52;100325.44;4945092;28;20050;-84
2022/10/30 10:31:29;;;;;;;14.35;7.22;;;;;;;15.59;93.24;100323.50;4930722;28;20051;-83
2022/10/30 10:34:25;;;;;;;13.27;7.45;;;;;;;15.54;93.88;100315.94;4941650;28;20074;-88
2022/10/30 10:37:03;;;;;;;18.50;8.00;;;;;;;15.65;93.78;100317.56;4892731;28;20043;-89
2022/10/30 10:39:45;;;;;;;17.38;7.40;;;;;;;15.69;93.71;100316.25;4922138;28;20050;-89
2022/10/30 10:42:12;;;;;;;11.63;6.43;;;;;;;15.76;93.85;100317.31;4902031;28;20057;-87
2022/10/30 10:44:48;;;;;;;11.35;6.10;;;;;;;15.78;94.09;100312.63;4926334;28;20055;-91
2022/10/30 10:47:48;;;;;;;13.55;6.95;;;;;;;15.81;94.66;100314.16;4929497;28;20058;-91
2022/10/30 10:50:20;;;;;;;11.70;7.22;;;;;;;15.88;94.66;100303.66;4890335;28;20043;-91
2022/10/30 10:52:57;;;;;;;10.85;6.57;;;;;;;15.88;94.92;100306.34;4927394;28;20099;-91
2022/10/30 10:55:28;;;;;;;11.05;6.47;;;;;;;15.95;94.87;100304.69;4931183;28;20054;-90
2022/10/30 10:57:58;;;;;;;13.25;5.78;;;;;;;16.00;94.77;100305.06;4940533;28;20039;-90
2022/10/30 11:00:27;;;;;;;12.10;6.75;;;;;;;16.05;94.99;100292.03;4949413;28;20474;-91
2022/10/30 11:03:09;;;;;;;13.43;7.15;;;;;;;16.06;95.28;100296.41;4933371;28;20051;-89
2022/10/30 11:05:56;;;;;;;12.90;7.53;;;;;;;16.02;95.57;100295.84;4950113;28;20047;-90
2022/10/30 11:08:30;;;;;;;12.85;6.70;;;;;;;16.14;95.55;100293.75;4939895;28;20047;-91
2022/10/30 11:11:02;;;;;;;14.07;7.13;;;;;;;16.16;95.39;100289.06;4953162;28;20081;-90
2022/10/30 11:13:33;;;;;;;10.45;6.10;;;;;;;16.21;95.26;100289.44;4952599;28;20067;-90
2022/10/30 11:16:21;;;;;;;16.25;6.38;;;;;;;16.21;96.42;100286.75;4982464;28;20096;-90
2022/10/30 11:18:51;;;;;;;22.15;8.02;;;;;;;16.28;95.18;100274.41;4962677;28;20050;-89
2022/10/30 11:21:21;;;;;;;11.65;6.72;;;;;;;16.33;94.58;100268.53;4940643;28;20097;-88
2022/10/30 11:23:48;;;;;;;15.65;7.55;;;;;;;16.38;94.32;100270.72;4936114;28;20518;-88
2022/10/30 11:26:19;;;;;;;14.90;7.90;;;;;;;16.40;93.58;100268.72;4937670;28;20109;-90
2022/10/30 11:28:50;;;;;;;20.50;9.45;;;;;;;16.43;92.64;100274.59;4970348;28;20110;-90
2022/10/30 11:31:20;;;;;;;20.88;8.52;;;;;;;16.49;92.39;100270.44;4949634;28;20458;-90
2022/10/30 11:33:47;;;;;;;16.33;7.80;;;;;;;16.55;92.63;100261.72;4971564;28;20541;-90
2022/10/30 11:36:17;;;;;;;16.35;7.38;;;;;;;16.57;91.94;100259.72;4967787;28;20054;-90
2022/10/30 11:38:44;;;;;;;15.45;6.47;;;;;;;16.62;90.02;100259.25;4949503;28;20101;-90
2022/10/30 11:41:12;;;;;;;14.05;6.78;;;;;;;16.65;89.14;100261.59;4948657;28;20114;-89
2022/10/30 11:43:40;;;;;;;13.65;6.22;;;;;;;16.67;88.05;100259.59;4948460;28;20402;-89